createdAt,value
2023-03-18T00:02:03.331Z,10.67
2023-03-18T00:04:30.710Z,10.67
2023-03-18T00:06:57.814Z,10.64
2023-03-18T00:09:24.928Z,10.63
2023-03-18T00:11:52.583Z,10.63
2023-03-18T00:14:19.573Z,10.61
2023-03-18T00:16:46.436Z,10.60
2023-03-18T00:19:13.295Z,10.62
2023-03-18T00:21:40.202Z,10.58
2023-03-18T00:24:07.599Z,10.62
2023-03-18T00:26:34.498Z,10.62
2023-03-18T00:29:01.545Z,10.62
2023-03-18T00:31:30.009Z,10.65
2023-03-18T00:33:57.097Z,10.65
2023-03-18T00:36:26.375Z,10.66
2023-03-18T00:39:03.507Z,10.65
2023-03-18T00:41:33.317Z,10.63
2023-03-18T00:44:00.737Z,10.67
2023-03-18T00:46:31.574Z,10.64
2023-03-18T00:49:02.278Z,10.64
2023-03-18T00:51:31.663Z,10.66
2023-03-18T00:54:06.765Z,10.64
2023-03-18T00:56:34.692Z,10.58
2023-03-18T00:59:01.517Z,10.59
2023-03-18T01:01:29.187Z,10.59
2023-03-18T01:03:56.306Z,10.61
2023-03-18T01:06:29.833Z,10.62
2023-03-18T01:08:58.761Z,10.62
2023-03-18T01:11:26.668Z,10.64
2023-03-18T01:13:54.566Z,10.62
2023-03-18T01:16:22.655Z,10.57
2023-03-18T01:18:50.137Z,10.59
2023-03-18T01:21:18.226Z,10.55
2023-03-18T01:23:45.718Z,10.58
2023-03-18T01:26:12.723Z,10.55
2023-03-18T01:28:40.314Z,10.55
2023-03-18T01:31:08.310Z,10.54
2023-03-18T01:33:37.094Z,10.57
2023-03-18T01:36:05.706Z,10.52
2023-03-18T01:38:33.204Z,10.54
2023-03-18T01:41:01.277Z,10.56
2023-03-18T01:43:35.585Z,10.52
2023-03-18T01:46:35.604Z,10.50
2023-03-18T01:49:49.389Z,10.45
2023-03-18T01:52:27.299Z,10.53
2023-03-18T01:55:07.591Z,10.51
2023-03-18T01:57:36.064Z,10.54
2023-03-18T02:00:05.675Z,10.51
2023-03-18T02:02:34.110Z,10.52
2023-03-18T02:05:06.802Z,10.50
2023-03-18T02:07:36.157Z,10.48
2023-03-18T02:10:13.479Z,10.45
2023-03-18T02:12:47.082Z,10.46
2023-03-18T02:15:19.985Z,10.44
2023-03-18T02:17:55.570Z,10.44
2023-03-18T02:20:39.994Z,10.43
2023-03-18T02:23:25.875Z,10.38
2023-03-18T02:26:25.667Z,10.36
2023-03-18T02:28:57.673Z,10.38
2023-03-18T02:31:25.012Z,10.40
2023-03-18T02:33:52.202Z,10.41
2023-03-18T02:36:25.538Z,10.41
2023-03-18T02:38:52.339Z,10.43
2023-03-18T02:41:25.032Z,10.41
2023-03-18T02:43:52.418Z,10.41
2023-03-18T02:46:36.670Z,10.33
2023-03-18T02:49:07.814Z,10.34
2023-03-18T02:51:37.366Z,10.37
2023-03-18T02:54:15.157Z,10.37
2023-03-18T02:56:43.794Z,10.38
2023-03-18T02:59:11.927Z,10.36
2023-03-18T03:01:40.831Z,10.32
2023-03-18T03:04:08.249Z,10.33
2023-03-18T03:06:36.216Z,10.32
2023-03-18T03:09:05.982Z,10.31
2023-03-18T03:11:33.207Z,10.30
2023-03-18T03:14:00.373Z,10.30
2023-03-18T03:16:28.378Z,10.29
2023-03-18T03:18:55.711Z,10.31
2023-03-18T03:21:22.622Z,10.29
2023-03-18T03:23:49.941Z,10.30
2023-03-18T03:26:17.902Z,10.31
2023-03-18T03:28:45.067Z,10.27
2023-03-18T03:31:12.031Z,10.29
2023-03-18T03:33:41.950Z,10.29
2023-03-18T03:36:15.260Z,10.28
2023-03-18T03:38:42.514Z,10.30
2023-03-18T03:41:11.742Z,10.24
2023-03-18T03:43:43.915Z,10.24
2023-03-18T03:46:12.098Z,10.24
2023-03-18T03:48:39.833Z,10.25
2023-03-18T03:51:07.668Z,10.22
2023-03-18T03:53:36.201Z,10.22
2023-03-18T03:56:05.368Z,10.21
2023-03-18T03:58:32.195Z,10.20
2023-03-18T04:00:59.953Z,10.21
2023-03-18T04:03:28.650Z,10.21
2023-03-18T04:05:56.545Z,10.20
2023-03-18T04:08:23.412Z,10.21
2023-03-18T04:10:50.325Z,10.22
2023-03-18T04:13:17.170Z,10.21
2023-03-18T04:15:44.046Z,10.19
2023-03-18T04:18:10.961Z,10.16
2023-03-18T04:20:38.873Z,10.15
2023-03-18T04:23:06.147Z,10.13
2023-03-18T04:25:33.366Z,10.08
2023-03-18T04:28:00.246Z,10.04
2023-03-18T04:30:27.620Z,10.01
2023-03-18T04:32:55.151Z,10.00
2023-03-18T04:35:23.563Z,9.99
2023-03-18T04:37:50.802Z,10.00
2023-03-18T04:40:18.500Z,9.99
2023-03-18T04:42:47.896Z,9.99
2023-03-18T04:45:16.512Z,9.98
2023-03-18T04:47:45.400Z,9.94
2023-03-18T04:50:14.195Z,9.93
2023-03-18T04:52:42.906Z,9.93
2023-03-18T04:55:11.029Z,9.92
2023-03-18T04:57:38.867Z,9.88
2023-03-18T05:00:12.577Z,9.88
2023-03-18T05:02:40.215Z,9.90
2023-03-18T05:05:08.113Z,9.90
2023-03-18T05:07:35.381Z,9.92
2023-03-18T05:10:04.602Z,9.93
2023-03-18T05:12:31.633Z,9.92
2023-03-18T05:14:58.735Z,9.94
2023-03-18T05:17:25.691Z,9.95
2023-03-18T05:19:52.632Z,9.97
2023-03-18T05:22:21.445Z,9.98
2023-03-18T05:24:50.050Z,9.96
2023-03-18T05:27:19.252Z,9.98
2023-03-18T05:29:46.648Z,9.95
2023-03-18T05:32:14.957Z,9.97
2023-03-18T05:34:43.076Z,9.93
2023-03-18T05:37:13.391Z,9.95
2023-03-18T05:39:40.958Z,9.92
2023-03-18T05:42:09.406Z,9.89
2023-03-18T05:44:36.297Z,9.90
2023-03-18T05:47:03.147Z,9.89
2023-03-18T05:49:30.401Z,9.89
2023-03-18T05:51:57.269Z,9.87
2023-03-18T05:54:24.281Z,9.83
2023-03-18T05:56:52.927Z,9.85
2023-03-18T05:59:22.190Z,9.86
2023-03-18T06:01:49.307Z,9.86
2023-03-18T06:04:17.452Z,9.84
2023-03-18T06:06:44.242Z,9.80
2023-03-18T06:09:14.056Z,9.83
2023-03-18T06:11:41.397Z,9.82
2023-03-18T06:14:08.928Z,9.74
2023-03-18T06:16:36.745Z,9.74
2023-03-18T06:19:05.058Z,9.70
2023-03-18T06:21:33.251Z,9.72
2023-03-18T06:24:02.038Z,9.70
2023-03-18T06:26:29.348Z,9.67
2023-03-18T06:28:58.550Z,9.63
2023-03-18T06:31:26.186Z,9.63
2023-03-18T06:33:53.471Z,9.62
2023-03-18T06:36:21.924Z,9.62
2023-03-18T06:38:49.094Z,9.62
2023-03-18T06:41:16.525Z,9.62
2023-03-18T06:43:43.524Z,9.63
2023-03-18T06:46:10.846Z,9.64
2023-03-18T06:48:40.599Z,9.65
2023-03-18T06:51:08.042Z,9.67
2023-03-18T06:53:36.545Z,9.71
2023-03-18T06:56:08.060Z,9.72
2023-03-18T06:58:34.835Z,9.76
2023-03-18T07:01:01.789Z,9.78
2023-03-18T07:03:28.622Z,9.80
2023-03-18T07:05:56.223Z,9.81
2023-03-18T07:08:23.617Z,9.83
2023-03-18T07:10:54.760Z,9.82
2023-03-18T07:13:23.209Z,9.86
2023-03-18T07:15:50.133Z,9.84
2023-03-18T07:18:17.450Z,9.89
2023-03-18T07:20:44.247Z,9.93
2023-03-18T07:23:11.498Z,9.93
2023-03-18T07:25:38.881Z,9.97
2023-03-18T07:28:05.915Z,10.01
2023-03-18T07:30:34.118Z,10.07
2023-03-18T07:33:01.437Z,10.10
2023-03-18T07:35:28.924Z,10.16
2023-03-18T07:37:55.767Z,10.21
2023-03-18T07:40:22.971Z,10.25
2023-03-18T07:42:51.765Z,10.33
2023-03-18T07:45:18.629Z,10.39
2023-03-18T07:47:47.234Z,10.43
2023-03-18T07:50:14.547Z,10.49
2023-03-18T07:52:42.096Z,10.58
2023-03-18T07:55:12.325Z,10.64
2023-03-18T07:57:39.565Z,10.71
2023-03-18T08:00:09.019Z,10.76
2023-03-18T08:02:36.491Z,10.81
2023-03-18T08:05:04.512Z,10.88
2023-03-18T08:07:31.667Z,10.92
2023-03-18T08:09:58.510Z,10.95
2023-03-18T08:12:26.296Z,11.02
2023-03-18T08:14:53.192Z,11.03
2023-03-18T08:17:20.670Z,11.03
2023-03-18T08:19:49.115Z,11.14
2023-03-18T08:22:16.144Z,11.20
2023-03-18T08:24:45.451Z,11.26
2023-03-18T08:27:12.404Z,11.26
2023-03-18T08:29:39.959Z,11.31
2023-03-18T08:32:07.898Z,11.36
2023-03-18T08:34:36.013Z,11.40
2023-03-18T08:37:03.402Z,11.45
2023-03-18T08:39:30.170Z,11.54
2023-03-18T08:41:56.925Z,11.55
2023-03-18T08:44:23.724Z,11.64
2023-03-18T08:46:50.745Z,11.73
2023-03-18T08:49:17.802Z,11.79
2023-03-18T08:51:45.083Z,11.85
2023-03-18T08:54:12.167Z,11.85
2023-03-18T08:56:39.081Z,11.88
2023-03-18T08:59:05.985Z,11.83
2023-03-18T09:01:33.173Z,11.84
2023-03-18T09:04:00.157Z,11.87
2023-03-18T09:06:28.113Z,11.93
2023-03-18T09:08:55.062Z,12.01
2023-03-18T09:11:22.247Z,12.08
2023-03-18T09:13:49.031Z,12.17
2023-03-18T09:16:16.178Z,12.20
2023-03-18T09:18:45.242Z,12.21
2023-03-18T09:21:12.793Z,12.24
2023-03-18T09:23:39.873Z,12.30
2023-03-18T09:26:06.623Z,12.36
2023-03-18T09:28:33.454Z,12.39
2023-03-18T09:31:00.758Z,12.44
2023-03-18T09:33:27.659Z,12.49
2023-03-18T09:35:55.320Z,12.53
2023-03-18T09:38:22.599Z,12.60
2023-03-18T09:41:01.227Z,12.58
2023-03-18T09:43:52.874Z,12.63
2023-03-18T09:46:25.672Z,12.71
2023-03-18T09:49:44.054Z,12.73
2023-03-18T09:52:27.724Z,12.84
2023-03-18T09:55:03.755Z,12.88
2023-03-18T09:57:45.173Z,12.90
2023-03-18T10:00:37.070Z,12.94
2023-03-18T10:03:11.257Z,13.01
2023-03-18T10:05:56.969Z,12.98
2023-03-18T10:08:42.083Z,12.93
2023-03-18T10:11:26.485Z,12.91
2023-03-18T10:14:30.470Z,12.94
2023-03-18T10:17:26.325Z,12.91
2023-03-18T10:19:56.110Z,12.86
2023-03-18T10:22:54.432Z,12.97
2023-03-18T10:25:50.125Z,13.10
2023-03-18T10:28:44.459Z,13.25
2023-03-18T10:31:32.249Z,13.32
2023-03-18T10:34:02.479Z,13.40
2023-03-18T10:36:44.007Z,13.40
2023-03-18T10:39:18.716Z,13.44
2023-03-18T10:41:50.331Z,13.55
2023-03-18T10:44:31.162Z,13.52
2023-03-18T10:47:10.327Z,13.64
2023-03-18T10:49:43.045Z,13.75
2023-03-18T10:52:39.743Z,13.84
2023-03-18T10:55:16.757Z,13.92
2023-03-18T10:57:43.810Z,14.01
2023-03-18T11:00:29.921Z,14.13
2023-03-18T11:02:57.529Z,14.19
2023-03-18T11:05:34.129Z,14.28
2023-03-18T11:08:07.581Z,14.43
2023-03-18T11:10:43.889Z,14.55
2023-03-18T11:13:18.052Z,14.65
2023-03-18T11:15:55.054Z,14.74
2023-03-18T11:18:25.732Z,14.81
2023-03-18T11:21:04.928Z,14.89
2023-03-18T11:23:49.322Z,14.95
2023-03-18T11:26:29.275Z,14.94
2023-03-18T11:29:05.855Z,14.83
2023-03-18T11:31:32.889Z,14.67
2023-03-18T11:34:00.740Z,14.71
2023-03-18T11:36:28.846Z,14.41
2023-03-18T11:39:04.156Z,14.36
2023-03-18T11:41:31.050Z,14.26
2023-03-18T11:44:18.221Z,14.21
2023-03-18T11:47:01.402Z,14.26
2023-03-18T11:49:29.640Z,14.28
2023-03-18T11:52:53.315Z,14.32
2023-03-18T11:55:39.654Z,14.53
2023-03-18T11:58:46.890Z,14.59
2023-03-18T12:01:43.010Z,14.71
2023-03-18T12:04:37.766Z,14.76
2023-03-18T12:07:23.722Z,14.81
2023-03-18T12:10:30.723Z,14.81
2023-03-18T12:13:39.606Z,14.81
2023-03-18T12:16:43.492Z,14.72
2023-03-18T12:19:38.272Z,14.54
2023-03-18T12:22:17.678Z,14.56
2023-03-18T12:25:09.305Z,14.48
2023-03-18T12:27:52.626Z,14.41
2023-03-18T12:30:53.624Z,14.46
2023-03-18T12:33:47.857Z,14.57
2023-03-18T12:36:24.743Z,14.54
2023-03-18T12:39:04.276Z,14.60
2023-03-18T12:42:07.063Z,14.65
2023-03-18T12:44:42.898Z,14.68
2023-03-18T12:47:37.053Z,14.71
2023-03-18T12:50:25.571Z,14.88
2023-03-18T12:53:02.855Z,14.91
2023-03-18T12:55:39.643Z,15.02
2023-03-18T12:58:17.579Z,15.06
2023-03-18T13:01:07.283Z,15.12
2023-03-18T13:03:41.181Z,15.19
2023-03-18T13:07:16.054Z,15.25
2023-03-18T13:10:09.034Z,15.31
2023-03-18T13:12:40.568Z,15.40
2023-03-18T13:15:33.369Z,15.38
2023-03-18T13:18:12.748Z,15.47
2023-03-18T13:20:42.012Z,15.52
2023-03-18T13:23:35.022Z,15.53
2023-03-18T13:26:24.409Z,15.68
2023-03-18T13:29:18.645Z,15.66
2023-03-18T13:32:17.443Z,15.57
2023-03-18T13:34:53.053Z,15.70
2023-03-18T13:38:16.865Z,15.69
2023-03-18T13:41:32.634Z,15.67
2023-03-18T13:44:07.087Z,15.75
2023-03-18T13:46:35.198Z,15.81
2023-03-18T13:49:03.084Z,15.82
2023-03-18T13:51:29.830Z,15.78
2023-03-18T13:54:02.299Z,15.79
2023-03-18T13:56:33.723Z,15.84
2023-03-18T13:59:08.132Z,15.81
2023-03-18T14:01:48.710Z,15.76
2023-03-18T14:04:41.659Z,15.75
2023-03-18T14:07:23.989Z,15.63
2023-03-18T14:10:18.260Z,15.52
2023-03-18T14:12:48.073Z,15.54
2023-03-18T14:15:15.199Z,15.35
2023-03-18T14:17:48.180Z,15.34
2023-03-18T14:20:18.080Z,15.28
2023-03-18T14:22:51.375Z,15.16
2023-03-18T14:25:18.078Z,15.17
2023-03-18T14:27:51.417Z,15.11
2023-03-18T14:30:46.957Z,15.15
2023-03-18T14:33:20.273Z,15.10
2023-03-18T14:36:21.574Z,15.11
2023-03-18T14:39:07.239Z,14.98
2023-03-18T14:41:42.579Z,14.96
2023-03-18T14:44:27.760Z,14.94
2023-03-18T14:47:04.206Z,14.88
2023-03-18T14:49:59.917Z,14.84
2023-03-18T14:52:34.842Z,14.73
2023-03-18T14:55:08.013Z,14.69
2023-03-18T14:57:34.788Z,14.65
2023-03-18T15:00:02.229Z,14.61
2023-03-18T15:02:35.220Z,14.67
2023-03-18T15:05:02.993Z,14.66
2023-03-18T15:07:40.215Z,14.63
2023-03-18T15:10:13.471Z,14.69
2023-03-18T15:12:40.580Z,14.73
2023-03-18T15:15:14.748Z,14.78
2023-03-18T15:17:49.304Z,14.84
2023-03-18T15:20:17.070Z,14.90
2023-03-18T15:22:44.732Z,14.94
2023-03-18T15:25:20.791Z,14.96
2023-03-18T15:27:48.501Z,14.93
2023-03-18T15:30:31.754Z,14.81
2023-03-18T15:33:18.904Z,14.62
2023-03-18T15:35:46.496Z,14.47
2023-03-18T15:38:19.813Z,14.38
2023-03-18T15:41:01.619Z,14.23
2023-03-18T15:43:42.770Z,14.12
2023-03-18T15:46:15.767Z,14.12
2023-03-18T15:48:54.789Z,14.09
2023-03-18T15:51:35.192Z,14.16
2023-03-18T15:54:30.028Z,14.16
2023-03-18T15:56:59.598Z,14.17
2023-03-18T15:59:30.072Z,14.15
2023-03-18T16:01:58.988Z,13.96
2023-03-18T16:04:32.879Z,13.92
2023-03-18T16:06:59.852Z,13.75
2023-03-18T16:09:27.185Z,13.60
2023-03-18T16:12:13.333Z,13.52
2023-03-18T16:14:44.052Z,13.35
2023-03-18T16:17:14.031Z,13.34
2023-03-18T16:19:40.994Z,13.16
2023-03-18T16:22:09.126Z,13.07
2023-03-18T16:24:37.006Z,12.95
2023-03-18T16:27:06.178Z,12.90
2023-03-18T16:29:38.314Z,12.78
2023-03-18T16:32:06.689Z,12.64
2023-03-18T16:34:33.566Z,12.50
2023-03-18T16:37:00.422Z,12.55
2023-03-18T16:39:34.440Z,12.51
2023-03-18T16:42:04.382Z,12.50
2023-03-18T16:44:34.561Z,12.44
2023-03-18T16:47:02.741Z,12.51
2023-03-18T16:49:37.042Z,12.44
2023-03-18T16:52:04.004Z,12.50
2023-03-18T16:54:33.873Z,12.47
2023-03-18T16:57:04.514Z,12.52
2023-03-18T16:59:37.727Z,12.51
2023-03-18T17:02:05.846Z,12.46
2023-03-18T17:04:35.309Z,12.43
2023-03-18T17:07:04.951Z,12.48
2023-03-18T17:09:32.468Z,12.40
2023-03-18T17:12:04.974Z,12.43
2023-03-18T17:14:40.393Z,12.36
2023-03-18T17:17:31.149Z,12.17
2023-03-18T17:19:59.800Z,12.29
2023-03-18T17:22:33.449Z,12.25
2023-03-18T17:25:01.759Z,12.21
2023-03-18T17:27:45.203Z,12.24
2023-03-18T17:30:37.771Z,12.20
2023-03-18T17:33:27.318Z,12.26
2023-03-18T17:35:54.902Z,12.24
2023-03-18T17:38:22.265Z,12.23
2023-03-18T17:40:50.555Z,12.20
2023-03-18T17:43:29.805Z,12.16
2023-03-18T17:45:58.139Z,12.13
2023-03-18T17:48:28.630Z,12.09
2023-03-18T17:50:59.836Z,12.13
2023-03-18T17:53:29.024Z,12.09
2023-03-18T17:55:56.998Z,12.06
2023-03-18T17:58:28.505Z,12.02
2023-03-18T18:01:03.739Z,12.06
2023-03-18T18:03:30.999Z,11.98
2023-03-18T18:05:59.313Z,11.99
2023-03-18T18:08:28.443Z,11.94
2023-03-18T18:11:22.993Z,11.92
2023-03-18T18:13:52.311Z,11.90
2023-03-18T18:16:19.974Z,11.84
2023-03-18T18:18:49.621Z,11.81
2023-03-18T18:21:20.108Z,11.82
2023-03-18T18:23:48.814Z,11.81
2023-03-18T18:26:19.860Z,11.82
2023-03-18T18:28:51.249Z,11.80
2023-03-18T18:31:20.664Z,11.82
2023-03-18T18:33:50.238Z,11.78
2023-03-18T18:36:18.326Z,11.72
2023-03-18T18:38:45.501Z,11.78
2023-03-18T18:41:12.755Z,11.72
2023-03-18T18:43:39.660Z,11.73
2023-03-18T18:46:15.690Z,11.69
2023-03-18T18:48:48.233Z,11.68
2023-03-18T18:51:19.425Z,11.65
2023-03-18T18:53:46.762Z,11.69
2023-03-18T18:56:23.715Z,11.66
2023-03-18T18:58:52.248Z,11.63
2023-03-18T19:01:19.973Z,11.65
2023-03-18T19:03:48.371Z,11.62
2023-03-18T19:06:26.167Z,11.58
2023-03-18T19:08:56.853Z,11.59
2023-03-18T19:11:27.526Z,11.55
2023-03-18T19:13:55.470Z,11.59
2023-03-18T19:16:34.049Z,11.53
2023-03-18T19:19:01.324Z,11.53
2023-03-18T19:21:28.778Z,11.52
2023-03-18T19:23:55.614Z,11.51
2023-03-18T19:26:22.665Z,11.49
2023-03-18T19:28:59.393Z,11.50
2023-03-18T19:31:32.400Z,11.47
2023-03-18T19:34:00.697Z,11.46
2023-03-18T19:36:39.730Z,11.45
2023-03-18T19:39:16.151Z,11.42
2023-03-18T19:41:44.394Z,11.45
2023-03-18T19:44:25.194Z,11.39
2023-03-18T19:46:55.358Z,11.41
2023-03-18T19:49:32.870Z,11.27
2023-03-18T19:52:00.259Z,11.16
2023-03-18T19:54:37.068Z,10.58
2023-03-18T19:57:24.576Z,10.50
2023-03-18T19:59:53.964Z,10.25
2023-03-18T20:02:23.671Z,9.92
2023-03-18T20:04:53.010Z,9.64
2023-03-18T20:07:23.343Z,9.55
2023-03-18T20:09:50.854Z,9.39
2023-03-18T20:12:34.567Z,9.28
2023-03-18T20:15:01.373Z,9.18
2023-03-18T20:17:39.897Z,9.08
2023-03-18T20:20:13.490Z,9.06
2023-03-18T20:22:47.911Z,8.93
2023-03-18T20:25:41.280Z,8.79
2023-03-18T20:28:15.150Z,8.86
2023-03-18T20:30:42.479Z,8.89
2023-03-18T20:33:12.604Z,8.75
2023-03-18T20:35:44.289Z,8.69
2023-03-18T20:38:30.452Z,8.63
2023-03-18T20:40:57.957Z,8.69
2023-03-18T20:43:28.452Z,8.68
2023-03-18T20:45:57.935Z,8.54
2023-03-18T20:48:25.319Z,8.50
2023-03-18T20:50:52.814Z,8.44
2023-03-18T20:53:25.769Z,8.36
2023-03-18T20:55:53.210Z,8.36
2023-03-18T20:58:24.251Z,8.34
2023-03-18T21:00:52.588Z,8.33
2023-03-18T21:03:32.414Z,8.30
2023-03-18T21:06:01.819Z,8.23
2023-03-18T21:08:29.496Z,8.13
2023-03-18T21:11:01.712Z,8.12
2023-03-18T21:13:39.115Z,8.03
2023-03-18T21:16:13.157Z,7.93
2023-03-18T21:18:42.206Z,7.83
2023-03-18T21:21:20.578Z,7.83
2023-03-18T21:23:48.114Z,7.76
2023-03-18T21:26:15.357Z,7.78
2023-03-18T21:28:42.226Z,7.73
2023-03-18T21:31:36.146Z,7.68
2023-03-18T21:34:04.175Z,7.67
2023-03-18T21:36:31.228Z,7.63
2023-03-18T21:38:58.021Z,7.62
2023-03-18T21:41:29.388Z,7.71
2023-03-18T21:43:56.500Z,7.61
2023-03-18T21:46:27.188Z,7.61
2023-03-18T21:48:54.390Z,7.57
2023-03-18T21:51:38.720Z,7.66
2023-03-18T21:54:11.658Z,7.58
2023-03-18T21:56:38.407Z,7.66
2023-03-18T21:59:05.192Z,7.67
2023-03-18T22:01:32.595Z,7.69
2023-03-18T22:03:59.767Z,7.67
2023-03-18T22:06:26.925Z,7.69
2023-03-18T22:08:53.710Z,7.61
2023-03-18T22:11:22.667Z,7.58
2023-03-18T22:13:50.200Z,7.61
2023-03-18T22:16:18.991Z,7.56
2023-03-18T22:18:49.315Z,7.60
2023-03-18T22:21:27.721Z,7.63
2023-03-18T22:23:55.735Z,7.67
2023-03-18T22:26:22.826Z,7.62
2023-03-18T22:28:50.764Z,7.63
2023-03-18T22:31:26.931Z,7.57
2023-03-18T22:33:54.542Z,7.60
2023-03-18T22:36:25.675Z,7.52
2023-03-18T22:38:52.941Z,7.55
2023-03-18T22:41:29.612Z,7.56
2023-03-18T22:43:58.081Z,7.55
2023-03-18T22:46:25.304Z,7.53
2023-03-18T22:48:52.146Z,7.58
2023-03-18T22:51:28.081Z,7.55
2023-03-18T22:53:55.816Z,7.62
2023-03-18T22:56:23.485Z,7.60
2023-03-18T22:58:50.703Z,7.54
2023-03-18T23:01:21.069Z,7.52
2023-03-18T23:03:48.286Z,7.39
2023-03-18T23:06:20.265Z,7.44
2023-03-18T23:08:47.887Z,7.41
2023-03-18T23:11:16.665Z,7.36
2023-03-18T23:13:47.947Z,7.32
2023-03-18T23:16:23.330Z,7.29
2023-03-18T23:18:51.716Z,7.22
2023-03-18T23:21:24.348Z,7.12
2023-03-18T23:23:52.677Z,7.10
2023-03-18T23:26:20.513Z,7.00
2023-03-18T23:28:48.823Z,6.97
2023-03-18T23:31:16.316Z,6.92
2023-03-18T23:33:43.704Z,6.77
2023-03-18T23:36:11.969Z,6.81
2023-03-18T23:38:39.107Z,6.73
2023-03-18T23:41:07.328Z,6.71
2023-03-18T23:43:34.591Z,6.65
2023-03-18T23:46:02.373Z,6.59
2023-03-18T23:48:29.318Z,6.57
2023-03-18T23:50:56.594Z,6.43
2023-03-18T23:53:23.455Z,6.48
2023-03-18T23:55:50.481Z,6.45
2023-03-18T23:58:17.863Z,6.42
